KCSQ

Creston Municipal Airport

Creston, Iowa, USA
METAR KCSQ 250055Z AUTO 17009KT 10SM CLR 26/17 A2999 RMK AO2
Observed Flight Rules
May-25 @ 00:55 UTC (21 minutes ago) Visual Flight Rules
Wind Visibility Clouds
170° at 9 knots 10 miles
  • Clear skies
Temperatures Readings
Current 26°C / 79°F
Dewpoint 17°C / 63°F
Humidity 58%
Altimeter 29.99" Hg
Pressure 1016 hPa
Elevation 394
METAR KCSQ 250055Z AUTO 17009KT 10SM CLR 26/17 A2999 RMK AO2
Observed Flight Rules
May-25 @ 00:55 UTC
(21 minutes ago)
VFR
Wind Visibility
170° at 9 knots 10 miles
Clouds
  • Clear skies
Temperature Dewpoint
26°C / 79°F 17°C / 63°F
Humidity Altimeter Pressure
58% 29.99" Hg 1016 hPa